createdAt,value
2018-10-21T00:00:57.899Z,88.83
2018-10-21T00:03:39.854Z,88.59
2018-10-21T00:06:21.745Z,88.34
2018-10-21T00:09:06.267Z,88.21
2018-10-21T00:11:47.984Z,88.86
2018-10-21T00:14:31.253Z,88.71
2018-10-21T00:17:13.126Z,88.92
2018-10-21T00:19:55.764Z,89.34
2018-10-21T00:22:38.569Z,89.64
2018-10-21T00:25:20.641Z,90.20
2018-10-21T00:28:02.316Z,90.45
2018-10-21T00:30:44.282Z,89.74
2018-10-21T00:33:26.643Z,89.77
2018-10-21T00:36:08.748Z,89.87
2018-10-21T00:38:50.844Z,89.74
2018-10-21T00:41:33.132Z,89.48
2018-10-21T00:44:15.131Z,90.03
2018-10-21T00:46:57.206Z,89.85
2018-10-21T00:49:39.334Z,90.21
2018-10-21T00:52:21.480Z,90.53
2018-10-21T00:55:04.488Z,90.36
2018-10-21T00:57:46.153Z,90.87
2018-10-21T01:00:27.423Z,90.50
2018-10-21T01:03:09.621Z,90.60
2018-10-21T01:05:52.044Z,90.35
2018-10-21T01:08:34.160Z,90.20
2018-10-21T01:11:15.916Z,90.09
2018-10-21T01:13:58.260Z,90.24
2018-10-21T01:16:39.972Z,90.32
2018-10-21T01:19:22.964Z,90.32
2018-10-21T01:22:05.261Z,90.96
2018-10-21T01:24:47.685Z,90.73
2018-10-21T01:27:31.043Z,90.74
2018-10-21T01:30:13.620Z,91.05
2018-10-21T01:32:55.428Z,90.90
2018-10-21T01:35:39.741Z,90.65
2018-10-21T01:38:21.458Z,90.50
2018-10-21T01:41:03.048Z,91.43
2018-10-21T01:43:45.137Z,91.55
2018-10-21T01:46:27.755Z,92.09
2018-10-21T01:49:09.831Z,91.82
2018-10-21T01:51:51.945Z,92.50
2018-10-21T01:54:34.248Z,92.28
2018-10-21T01:57:15.708Z,91.58
2018-10-21T01:59:57.613Z,91.15
2018-10-21T02:02:39.608Z,91.03
2018-10-21T02:05:21.890Z,91.22
2018-10-21T02:08:04.487Z,91.54
2018-10-21T02:10:46.136Z,90.99
2018-10-21T02:13:27.721Z,91.18
2018-10-21T02:16:10.127Z,91.31
2018-10-21T02:18:51.890Z,90.93
2018-10-21T02:21:33.199Z,90.52
2018-10-21T02:24:15.762Z,90.41
2018-10-21T02:26:57.933Z,90.31
2018-10-21T02:29:39.564Z,90.87
2018-10-21T02:32:21.717Z,90.80
2018-10-21T02:35:03.818Z,91.37
2018-10-21T02:37:45.403Z,91.36
2018-10-21T02:41:44.850Z,91.26
2018-10-21T02:44:26.909Z,90.95
2018-10-21T02:47:09.577Z,91.42
2018-10-21T02:49:51.956Z,91.50
2018-10-21T02:52:33.753Z,91.12
2018-10-21T02:55:16.657Z,91.21
2018-10-21T02:57:58.501Z,90.92
2018-10-21T03:00:40.965Z,91.01
2018-10-21T03:03:22.887Z,91.28
2018-10-21T03:06:05.294Z,91.50
2018-10-21T03:08:47.469Z,91.68
2018-10-21T03:11:30.597Z,91.60
2018-10-21T03:14:12.908Z,91.31
2018-10-21T03:16:55.007Z,90.96
2018-10-21T03:19:37.194Z,91.29
2018-10-21T03:22:18.661Z,91.33
2018-10-21T03:25:00.761Z,91.14
2018-10-21T03:27:43.912Z,91.05
2018-10-21T03:30:25.606Z,91.32
2018-10-21T03:33:07.467Z,91.41
2018-10-21T03:35:50.221Z,90.89
2018-10-21T03:38:32.710Z,91.25
2018-10-21T03:41:15.225Z,90.90
2018-10-21T03:43:58.643Z,90.78
2018-10-21T03:46:40.402Z,90.75
2018-10-21T03:49:22.213Z,91.03
2018-10-21T03:52:05.614Z,91.27
2018-10-21T03:54:47.552Z,91.24
2018-10-21T03:57:29.284Z,90.80
2018-10-21T04:00:11.865Z,90.53
2018-10-21T04:02:54.235Z,90.26
2018-10-21T04:05:35.835Z,90.07
2018-10-21T04:08:18.161Z,90.67
2018-10-21T04:10:59.858Z,91.34
2018-10-21T04:13:41.969Z,91.18
2018-10-21T04:16:24.045Z,91.17
2018-10-21T04:19:05.228Z,90.84
2018-10-21T04:21:47.139Z,91.02
2018-10-21T04:24:29.134Z,92.01
2018-10-21T04:27:11.782Z,91.69
2018-10-21T04:29:54.173Z,91.37
2018-10-21T04:32:39.052Z,91.21
2018-10-21T04:35:22.187Z,90.73
2018-10-21T04:38:16.159Z,90.62
2018-10-21T04:40:58.363Z,90.52
2018-10-21T04:43:40.322Z,90.59
2018-10-21T04:46:24.503Z,91.17
2018-10-21T04:49:07.017Z,90.94
2018-10-21T04:51:50.009Z,91.13
2018-10-21T04:54:35.253Z,91.70
2018-10-21T04:57:17.721Z,91.93
2018-10-21T05:00:00.090Z,92.04
2018-10-21T05:02:43.309Z,92.40
2018-10-21T05:05:25.109Z,92.00
2018-10-21T05:08:06.652Z,92.21
2018-10-21T05:10:49.654Z,91.88
2018-10-21T05:13:31.721Z,92.25
2018-10-21T05:16:14.868Z,92.17
2018-10-21T05:18:57.284Z,91.63
2018-10-21T05:21:39.344Z,92.10
2018-10-21T05:24:22.072Z,91.59
2018-10-21T05:27:09.026Z,92.29
2018-10-21T05:29:50.873Z,92.70
2018-10-21T05:32:33.797Z,92.28
2018-10-21T05:35:18.049Z,91.92
2018-10-21T05:38:01.216Z,91.55
2018-10-21T05:40:43.446Z,91.42
2018-10-21T05:43:26.203Z,91.43
2018-10-21T05:46:08.629Z,91.30
2018-10-21T05:48:51.142Z,91.25
2018-10-21T05:51:33.344Z,91.34
2018-10-21T05:54:16.875Z,91.33
2018-10-21T05:56:59.271Z,92.35
2018-10-21T05:59:42.404Z,92.03
2018-10-21T06:02:24.028Z,91.51
2018-10-21T06:05:11.109Z,91.97
2018-10-21T06:07:53.738Z,91.61
2018-10-21T06:10:36.033Z,92.30
2018-10-21T06:13:19.159Z,92.19
2018-10-21T06:16:01.430Z,92.35
2018-10-21T06:18:43.644Z,91.91
2018-10-21T06:21:26.900Z,92.06
2018-10-21T06:24:10.025Z,92.10
2018-10-21T06:26:52.019Z,92.33
2018-10-21T06:29:36.160Z,92.09
2018-10-21T06:32:18.671Z,91.60
2018-10-21T06:35:01.482Z,91.44
2018-10-21T06:37:44.305Z,91.68
2018-10-21T06:40:26.509Z,91.91
2018-10-21T06:43:08.709Z,91.84
2018-10-21T06:45:52.551Z,91.91
2018-10-21T06:48:35.044Z,91.77
2018-10-21T06:51:17.570Z,91.69
2018-10-21T06:54:00.388Z,91.35
2018-10-21T06:56:43.035Z,91.48
2018-10-21T06:59:24.590Z,91.25
2018-10-21T07:02:06.639Z,91.19
2018-10-21T07:04:49.260Z,90.68
2018-10-21T07:07:31.196Z,90.13
2018-10-21T07:10:13.679Z,89.79
2018-10-21T07:12:55.359Z,86.96
2018-10-21T07:15:37.713Z,84.11
2018-10-21T07:18:20.806Z,82.34
2018-10-21T07:21:04.968Z,83.19
2018-10-21T07:23:47.614Z,80.81
2018-10-21T07:26:30.090Z,78.56
2018-10-21T07:29:12.815Z,75.68
2018-10-21T07:31:59.121Z,70.57
2018-10-21T07:34:44.801Z,67.76
2018-10-21T07:37:29.412Z,67.32
2018-10-21T07:40:12.217Z,69.37
2018-10-21T07:42:54.250Z,68.65
2018-10-21T07:45:36.779Z,68.76
2018-10-21T07:48:19.269Z,64.66
2018-10-21T07:51:01.560Z,65.02
2018-10-21T07:53:43.495Z,65.58
2018-10-21T07:56:25.143Z,68.87
2018-10-21T07:59:07.373Z,68.64
2018-10-21T08:01:49.351Z,65.64
2018-10-21T08:04:31.158Z,66.48
2018-10-21T08:07:25.050Z,64.96
2018-10-21T08:10:07.674Z,62.18
2018-10-21T08:12:50.037Z,59.77
2018-10-21T08:15:33.258Z,59.95
2018-10-21T08:18:15.510Z,60.18
2018-10-21T08:20:57.953Z,59.03
2018-10-21T08:23:40.813Z,60.24
2018-10-21T08:26:23.628Z,57.15
2018-10-21T08:29:05.917Z,56.28
2018-10-21T08:31:47.603Z,54.84
2018-10-21T08:34:29.805Z,52.14
2018-10-21T08:37:11.085Z,54.75
2018-10-21T08:39:54.354Z,55.09
2018-10-21T08:42:36.456Z,56.91
2018-10-21T08:45:18.538Z,54.88
2018-10-21T08:48:01.454Z,59.93
2018-10-21T08:50:43.229Z,63.30
2018-10-21T08:53:24.917Z,66.59
2018-10-21T08:56:08.072Z,66.66
2018-10-21T08:58:50.484Z,68.43
2018-10-21T09:01:32.792Z,65.07
2018-10-21T09:04:15.798Z,67.93
2018-10-21T09:06:58.400Z,68.75
2018-10-21T09:09:40.609Z,66.96
2018-10-21T09:12:23.143Z,67.46
2018-10-21T09:15:05.565Z,68.05
2018-10-21T09:17:47.626Z,64.46
2018-10-21T09:20:30.021Z,59.45
2018-10-21T09:23:11.806Z,58.68
2018-10-21T09:25:54.404Z,60.04
2018-10-21T09:28:36.318Z,56.71
2018-10-21T09:31:18.658Z,55.89
2018-10-21T09:34:01.273Z,55.15
2018-10-21T09:36:44.258Z,55.80
2018-10-21T09:39:26.048Z,54.82
2018-10-21T09:42:07.598Z,56.97
2018-10-21T09:44:49.497Z,58.63
2018-10-21T09:47:30.854Z,59.78
2018-10-21T09:50:13.867Z,57.30
2018-10-21T09:52:56.389Z,59.42
2018-10-21T09:55:38.794Z,58.21
2018-10-21T09:58:22.099Z,55.56
2018-10-21T10:01:09.187Z,59.61
2018-10-21T10:03:51.789Z,58.16
2018-10-21T10:06:34.092Z,56.32
2018-10-21T10:09:16.233Z,54.87
2018-10-21T10:11:58.173Z,54.92
2018-10-21T10:14:40.463Z,51.65
2018-10-21T10:17:22.980Z,52.01
2018-10-21T10:20:08.789Z,52.80
2018-10-21T10:22:51.568Z,53.91
2018-10-21T10:25:33.827Z,56.13
2018-10-21T10:28:15.718Z,52.60
2018-10-21T10:30:57.904Z,51.38
2018-10-21T10:33:39.829Z,49.81
2018-10-21T10:36:27.604Z,52.22
2018-10-21T10:39:15.974Z,52.08
2018-10-21T10:41:57.673Z,50.57
2018-10-21T10:44:40.614Z,50.24
2018-10-21T10:47:22.269Z,51.45
2018-10-21T10:50:04.137Z,50.51
2018-10-21T10:52:46.897Z,48.99
2018-10-21T10:55:35.004Z,51.91
2018-10-21T10:58:17.682Z,54.61
2018-10-21T11:01:00.169Z,52.46
2018-10-21T11:03:42.599Z,53.03
2018-10-21T11:06:25.813Z,53.90
2018-10-21T11:09:10.270Z,54.03
2018-10-21T11:11:52.334Z,53.02
2018-10-21T11:14:35.233Z,50.78
2018-10-21T11:17:18.359Z,51.64
2018-10-21T11:19:59.985Z,51.59
2018-10-21T11:22:41.632Z,51.38
2018-10-21T11:25:24.542Z,54.11
2018-10-21T11:28:08.018Z,52.49
2018-10-21T11:30:50.382Z,51.88
2018-10-21T11:33:32.444Z,48.81
2018-10-21T11:36:14.248Z,50.28
2018-10-21T11:38:56.296Z,49.53
2018-10-21T11:41:38.587Z,47.83
2018-10-21T11:44:20.556Z,47.30
2018-10-21T11:47:02.661Z,47.23
2018-10-21T11:49:45.638Z,48.92
2018-10-21T11:52:28.006Z,49.94
2018-10-21T11:55:10.483Z,47.18
2018-10-21T11:57:53.278Z,48.19
2018-10-21T12:00:35.353Z,48.47
2018-10-21T12:03:17.788Z,48.02
2018-10-21T12:06:01.014Z,46.58
2018-10-21T12:08:43.217Z,49.34
2018-10-21T12:11:26.724Z,51.09
2018-10-21T12:14:09.785Z,47.48
2018-10-21T12:16:51.513Z,50.17
2018-10-21T12:19:34.413Z,47.42
2018-10-21T12:22:19.074Z,48.09
2018-10-21T12:25:02.521Z,45.60
2018-10-21T12:27:45.150Z,47.77
2018-10-21T12:30:26.847Z,47.87
2018-10-21T12:33:12.846Z,48.00
2018-10-21T12:35:55.149Z,47.95
2018-10-21T12:38:37.982Z,45.69
2018-10-21T12:41:19.825Z,43.23
2018-10-21T12:44:01.326Z,43.26
2018-10-21T12:46:45.394Z,45.32
2018-10-21T12:49:27.689Z,44.67
2018-10-21T12:52:09.105Z,44.40
2018-10-21T12:54:53.384Z,43.24
2018-10-21T12:57:36.346Z,40.29
2018-10-21T13:00:18.479Z,41.08
2018-10-21T13:03:00.434Z,44.11
2018-10-21T13:05:42.473Z,42.47
2018-10-21T13:08:23.724Z,42.17
2018-10-21T13:11:05.933Z,40.12
2018-10-21T13:13:48.295Z,41.24
2018-10-21T13:16:31.882Z,44.32
2018-10-21T13:19:14.034Z,43.28
2018-10-21T13:21:56.085Z,42.34
2018-10-21T13:24:38.334Z,39.71
2018-10-21T13:27:20.480Z,39.26
2018-10-21T13:30:02.718Z,37.06
2018-10-21T13:32:45.593Z,38.94
2018-10-21T13:35:28.288Z,38.59
2018-10-21T13:38:10.938Z,38.64
2018-10-21T13:40:53.698Z,39.56
2018-10-21T13:43:36.633Z,40.06
2018-10-21T13:46:20.242Z,38.16
2018-10-21T13:49:03.828Z,38.19
2018-10-21T13:51:47.697Z,41.25
2018-10-21T13:54:31.460Z,42.58
2018-10-21T13:57:13.948Z,38.84
2018-10-21T13:59:56.936Z,40.98
2018-10-21T14:02:39.975Z,41.12
2018-10-21T14:05:22.701Z,38.87
2018-10-21T14:08:04.855Z,41.10
2018-10-21T14:10:52.058Z,41.07
2018-10-21T14:13:36.883Z,39.97
2018-10-21T14:16:20.323Z,39.58
2018-10-21T14:19:02.529Z,39.68
2018-10-21T14:21:46.709Z,39.52
2018-10-21T14:24:28.588Z,43.13
2018-10-21T14:27:11.088Z,42.96
2018-10-21T14:29:54.100Z,42.59
2018-10-21T14:32:37.666Z,46.43
2018-10-21T14:35:20.744Z,46.23
2018-10-21T14:38:03.987Z,45.98
2018-10-21T14:40:47.951Z,45.83
2018-10-21T14:43:29.570Z,48.03
2018-10-21T14:46:12.172Z,47.84
2018-10-21T14:48:53.697Z,48.16
2018-10-21T14:51:35.261Z,49.44
2018-10-21T14:54:17.817Z,50.38
2018-10-21T14:56:59.603Z,51.35
2018-10-21T14:59:42.720Z,51.78
2018-10-21T15:02:26.021Z,51.51
2018-10-21T15:05:10.096Z,52.29
2018-10-21T15:07:52.758Z,51.62
2018-10-21T15:10:35.828Z,51.69
2018-10-21T15:13:18.247Z,52.36
2018-10-21T15:16:00.884Z,53.32
2018-10-21T15:18:45.108Z,53.32
2018-10-21T15:21:28.030Z,53.40
2018-10-21T15:24:10.371Z,53.49
2018-10-21T15:26:52.379Z,53.76
2018-10-21T15:29:33.737Z,54.00
2018-10-21T15:32:15.315Z,54.18
2018-10-21T15:34:57.718Z,54.35
2018-10-21T15:37:39.952Z,54.57
2018-10-21T15:40:22.180Z,54.27
2018-10-21T15:43:04.414Z,54.11
2018-10-21T15:45:48.007Z,54.04
2018-10-21T15:48:29.901Z,55.30
2018-10-21T15:51:12.509Z,55.33
2018-10-21T15:53:55.271Z,55.49
2018-10-21T15:56:37.233Z,55.30
2018-10-21T15:59:19.756Z,55.42
2018-10-21T16:02:01.926Z,55.64
2018-10-21T16:04:44.615Z,56.08
2018-10-21T16:07:26.773Z,56.99
2018-10-21T16:10:09.739Z,58.81
2018-10-21T16:12:52.801Z,60.23
2018-10-21T16:15:34.732Z,60.44
2018-10-21T16:18:17.838Z,60.97
2018-10-21T16:21:00.275Z,61.15
2018-10-21T16:23:42.276Z,61.39
2018-10-21T16:26:24.049Z,61.75
2018-10-21T16:29:05.836Z,62.46
2018-10-21T16:31:48.680Z,64.18
2018-10-21T16:34:30.651Z,64.35
2018-10-21T16:37:15.481Z,64.93
2018-10-21T16:40:00.711Z,65.23
2018-10-21T16:42:42.714Z,65.46
2018-10-21T16:45:25.897Z,65.72
2018-10-21T16:48:08.209Z,67.09
2018-10-21T16:50:49.960Z,67.09
2018-10-21T16:53:32.358Z,67.22
2018-10-21T16:56:14.969Z,67.34
2018-10-21T16:58:56.739Z,68.20
2018-10-21T17:01:39.329Z,68.65
2018-10-21T17:04:23.634Z,69.30
2018-10-21T17:07:07.404Z,69.42
2018-10-21T17:09:50.708Z,69.64
2018-10-21T17:12:32.953Z,69.61
2018-10-21T17:15:15.197Z,69.78
2018-10-21T17:17:57.681Z,69.44
2018-10-21T17:20:40.702Z,69.70
2018-10-21T17:23:22.306Z,70.67
2018-10-21T17:26:04.034Z,70.68
2018-10-21T17:28:45.749Z,70.62
2018-10-21T17:31:28.905Z,71.26
2018-10-21T17:34:10.810Z,71.39
2018-10-21T17:36:55.388Z,70.89
2018-10-21T17:39:39.421Z,71.09
2018-10-21T17:42:23.049Z,70.90
2018-10-21T17:45:06.266Z,71.14
2018-10-21T17:47:48.384Z,70.77
2018-10-21T17:50:31.084Z,71.00
2018-10-21T17:53:12.640Z,70.83
2018-10-21T17:55:54.136Z,71.60
2018-10-21T17:58:36.836Z,72.13
2018-10-21T18:01:19.210Z,72.36
2018-10-21T18:04:00.807Z,72.75
2018-10-21T18:06:44.248Z,73.18
2018-10-21T18:09:26.218Z,73.20
2018-10-21T18:12:20.904Z,73.83
2018-10-21T18:15:04.181Z,74.29
2018-10-21T18:18:01.506Z,74.20
2018-10-21T18:20:45.765Z,74.46
2018-10-21T18:23:28.458Z,73.75
2018-10-21T18:26:10.604Z,74.75
2018-10-21T18:28:52.860Z,75.23
2018-10-21T18:31:35.172Z,75.20
2018-10-21T18:34:19.035Z,75.51
2018-10-21T18:37:01.426Z,75.50
2018-10-21T18:39:46.397Z,76.04
2018-10-21T18:42:29.648Z,75.88
2018-10-21T18:45:13.757Z,76.22
2018-10-21T18:47:55.369Z,75.98
2018-10-21T18:50:36.997Z,76.25
2018-10-21T18:53:20.070Z,76.29
2018-10-21T18:56:02.278Z,76.35
2018-10-21T18:58:44.602Z,76.31
2018-10-21T19:01:26.585Z,76.43
2018-10-21T19:04:11.127Z,76.77
2018-10-21T19:06:52.845Z,77.12
2018-10-21T19:09:34.979Z,76.94
2018-10-21T19:12:16.610Z,76.61
2018-10-21T19:14:58.899Z,76.58
2018-10-21T19:17:41.515Z,77.43
2018-10-21T19:20:24.438Z,77.59
2018-10-21T19:23:06.133Z,77.44
2018-10-21T19:25:49.049Z,77.16
2018-10-21T19:28:32.293Z,77.35
2018-10-21T19:31:14.553Z,77.45
2018-10-21T19:33:57.241Z,77.47
2018-10-21T19:36:40.622Z,78.11
2018-10-21T19:39:23.250Z,77.90
2018-10-21T19:42:07.589Z,78.86
2018-10-21T19:44:51.020Z,78.83
2018-10-21T19:47:33.224Z,78.65
2018-10-21T19:50:16.412Z,78.70
2018-10-21T19:52:59.254Z,78.25
2018-10-21T19:55:41.567Z,77.90
2018-10-21T19:58:24.805Z,77.83
2018-10-21T20:01:07.869Z,77.61
2018-10-21T20:03:49.722Z,78.27
2018-10-21T20:06:31.801Z,79.49
2018-10-21T20:09:14.730Z,79.04
2018-10-21T20:11:57.132Z,79.63
2018-10-21T20:14:39.481Z,79.89
2018-10-21T20:17:21.448Z,79.26
2018-10-21T20:20:03.457Z,79.21
2018-10-21T20:22:45.935Z,78.87
2018-10-21T20:25:28.447Z,79.36
2018-10-21T20:28:11.030Z,79.80
2018-10-21T20:30:53.290Z,79.16
2018-10-21T20:33:35.791Z,79.36
2018-10-21T20:36:17.596Z,79.93
2018-10-21T20:38:59.097Z,80.66
2018-10-21T20:41:40.951Z,80.61
2018-10-21T20:44:23.034Z,80.92
2018-10-21T20:47:05.001Z,80.38
2018-10-21T20:49:46.840Z,80.83
2018-10-21T20:52:29.283Z,81.66
2018-10-21T20:55:11.343Z,81.42
2018-10-21T20:57:54.267Z,80.79
2018-10-21T21:00:36.456Z,80.47
2018-10-21T21:03:18.716Z,80.75
2018-10-21T21:06:01.028Z,81.15
2018-10-21T21:08:43.491Z,81.33
2018-10-21T21:11:25.588Z,81.13
2018-10-21T21:14:08.305Z,81.04
2018-10-21T21:16:50.414Z,81.51
2018-10-21T21:19:33.439Z,81.46
2018-10-21T21:22:15.412Z,82.12
2018-10-21T21:24:58.218Z,81.88
2018-10-21T21:27:41.034Z,82.34
2018-10-21T21:30:23.567Z,81.63
2018-10-21T21:33:06.734Z,81.62
2018-10-21T21:35:48.370Z,81.30
2018-10-21T21:38:30.097Z,81.79
2018-10-21T21:41:11.838Z,82.19
2018-10-21T21:43:54.250Z,82.13
2018-10-21T21:46:35.732Z,82.30
2018-10-21T21:49:17.635Z,82.44
2018-10-21T21:51:59.815Z,82.31
2018-10-21T21:54:41.304Z,82.39
2018-10-21T21:57:23.681Z,81.84
2018-10-21T22:00:08.549Z,82.78
2018-10-21T22:02:51.320Z,82.80
2018-10-21T22:05:33.283Z,82.25
2018-10-21T22:08:14.485Z,82.68
2018-10-21T22:10:56.174Z,82.68
2018-10-21T22:13:37.673Z,82.88
2018-10-21T22:16:19.353Z,82.51
2018-10-21T22:19:02.293Z,81.42
2018-10-21T22:21:44.151Z,81.60
2018-10-21T22:24:25.777Z,81.25
2018-10-21T22:27:07.438Z,81.06
2018-10-21T22:29:49.370Z,79.82
2018-10-21T22:32:32.193Z,79.73
2018-10-21T22:35:14.389Z,79.46
2018-10-21T22:37:56.230Z,79.43
2018-10-21T22:40:39.220Z,79.84
2018-10-21T22:43:21.197Z,79.18
2018-10-21T22:46:03.121Z,78.93
2018-10-21T22:48:45.110Z,79.95
2018-10-21T22:51:26.893Z,79.71
2018-10-21T22:54:08.787Z,79.97
2018-10-21T22:56:51.425Z,79.47
2018-10-21T22:59:33.882Z,79.27
2018-10-21T23:02:15.997Z,78.73
2018-10-21T23:04:58.313Z,78.90
2018-10-21T23:07:40.409Z,79.02
2018-10-21T23:10:24.060Z,79.42
2018-10-21T23:13:05.918Z,79.54
2018-10-21T23:15:48.127Z,79.34
2018-10-21T23:18:30.127Z,79.55
2018-10-21T23:21:12.738Z,79.00
2018-10-21T23:23:55.843Z,79.18
2018-10-21T23:26:37.347Z,79.17
2018-10-21T23:29:18.870Z,77.84
2018-10-21T23:32:00.933Z,77.32
2018-10-21T23:34:42.873Z,77.93
2018-10-21T23:41:11.076Z,77.43
2018-10-21T23:43:53.223Z,77.99
2018-10-21T23:46:36.032Z,77.21
2018-10-21T23:49:18.456Z,76.97
2018-10-21T23:52:01.658Z,77.02
2018-10-21T23:54:44.575Z,77.22
2018-10-21T23:57:27.872Z,77.38
